sensor_id;sensor_type;location;lat;lon;timestamp;temperature;humidity
15288;DHT22;7745;48.708;9.026;2023-02-28T07:23:46;-1.40;99.90
15288;DHT22;7745;48.708;9.026;2023-02-28T07:26:30;-1.30;99.90
15288;DHT22;7745;48.708;9.026;2023-02-28T07:28:59;-0.70;99.90
15288;DHT22;7745;48.708;9.026;2023-02-28T07:31:26;-1.30;99.90
15288;DHT22;7745;48.708;9.026;2023-02-28T07:33:53;-0.80;99.90
15288;DHT22;7745;48.708;9.026;2023-02-28T07:36:21;-1.20;99.90
15288;DHT22;7745;48.708;9.026;2023-02-28T07:38:50;-1.20;99.90
15288;DHT22;7745;48.708;9.026;2023-02-28T07:41:19;-1.20;99.90
15288;DHT22;7745;48.708;9.026;2023-02-28T07:43:46;-1.20;99.90
15288;DHT22;7745;48.708;9.026;2023-02-28T07:46:16;-1.10;99.90
15288;DHT22;7745;48.708;9.026;2023-02-28T07:48:45;-1.10;99.90
15288;DHT22;7745;48.708;9.026;2023-02-28T07:51:12;-1.10;99.90
15288;DHT22;7745;48.708;9.026;2023-02-28T07:53:39;-0.60;99.90
15288;DHT22;7745;48.708;9.026;2023-02-28T07:56:08;-1.00;99.90
15288;DHT22;7745;48.708;9.026;2023-02-28T07:58:36;-1.00;99.90
15288;DHT22;7745;48.708;9.026;2023-02-28T08:01:07;-0.90;99.90
15288;DHT22;7745;48.708;9.026;2023-02-28T08:03:34;-0.90;99.90
15288;DHT22;7745;48.708;9.026;2023-02-28T08:06:01;-0.90;99.90
15288;DHT22;7745;48.708;9.026;2023-02-28T08:08:28;-0.80;99.90
15288;DHT22;7745;48.708;9.026;2023-02-28T08:10:58;-0.80;99.90
15288;DHT22;7745;48.708;9.026;2023-02-28T08:13:26;-0.70;99.90
15288;DHT22;7745;48.708;9.026;2023-02-28T08:16:13;-0.20;99.90
15288;DHT22;7745;48.708;9.026;2023-02-28T08:18:49;-0.30;99.90
15288;DHT22;7745;48.708;9.026;2023-02-28T08:21:16;-0.70;99.90
15288;DHT22;7745;48.708;9.026;2023-02-28T08:23:43;-0.60;99.90
15288;DHT22;7745;48.708;9.026;2023-02-28T08:26:10;-0.60;99.90
15288;DHT22;7745;48.708;9.026;2023-02-28T08:28:38;-0.60;99.90
15288;DHT22;7745;48.708;9.026;2023-02-28T08:31:09;-0.60;99.90
15288;DHT22;7745;48.708;9.026;2023-02-28T08:33:37;-0.60;99.90
15288;DHT22;7745;48.708;9.026;2023-02-28T08:36:06;0.10;99.90
15288;DHT22;7745;48.708;9.026;2023-02-28T08:38:54;-0.50;99.90
15288;DHT22;7745;48.708;9.026;2023-02-28T08:41:45;-0.60;99.90
15288;DHT22;7745;48.708;9.026;2023-02-28T08:44:34;-0.60;99.90
15288;DHT22;7745;48.708;9.026;2023-02-28T08:47:06;-0.60;99.90
15288;DHT22;7745;48.708;9.026;2023-02-28T08:49:33;-0.60;99.90
15288;DHT22;7745;48.708;9.026;2023-02-28T08:52:02;-0.60;99.90
15288;DHT22;7745;48.708;9.026;2023-02-28T08:54:30;-0.20;99.90
15288;DHT22;7745;48.708;9.026;2023-02-28T08:56:58;0.40;99.90
15288;DHT22;7745;48.708;9.026;2023-02-28T08:59:31;-0.50;99.90
15288;DHT22;7745;48.708;9.026;2023-02-28T09:01:58;-0.30;99.90
15288;DHT22;7745;48.708;9.026;2023-02-28T09:04:25;-0.50;99.90
15288;DHT22;7745;48.708;9.026;2023-02-28T09:06:52;-0.50;99.90
15288;DHT22;7745;48.708;9.026;2023-02-28T09:09:21;-0.40;99.90
15288;DHT22;7745;48.708;9.026;2023-02-28T09:11:48;-0.90;99.90
15288;DHT22;7745;48.708;9.026;2023-02-28T09:14:36;-0.40;99.90
15288;DHT22;7745;48.708;9.026;2023-02-28T09:17:06;-0.40;99.90
15288;DHT22;7745;48.708;9.026;2023-02-28T09:19:33;-0.60;99.90
15288;DHT22;7745;48.708;9.026;2023-02-28T09:22:13;-0.30;99.90
15288;DHT22;7745;48.708;9.026;2023-02-28T09:28:24;-0.40;99.90
15288;DHT22;7745;48.708;9.026;2023-02-28T09:30:48;-0.30;99.90
15288;DHT22;7745;48.708;9.026;2023-02-28T09:33:19;-0.30;99.90
15288;DHT22;7745;48.708;9.026;2023-02-28T09:36:01;-0.20;99.90
15288;DHT22;7745;48.708;9.026;2023-02-28T09:38:29;-0.10;99.90
15288;DHT22;7745;48.708;9.026;2023-02-28T09:41:00;-0.20;99.90
15288;DHT22;7745;48.708;9.026;2023-02-28T09:43:37;-0.10;99.90
15288;DHT22;7745;48.708;9.026;2023-02-28T09:46:25;-0.10;99.90
15288;DHT22;7745;48.708;9.026;2023-02-28T09:49:13;0.00;99.90
15288;DHT22;7745;48.708;9.026;2023-02-28T09:51:53;0.10;99.90
15288;DHT22;7745;48.708;9.026;2023-02-28T09:54:31;0.50;99.90
15288;DHT22;7745;48.708;9.026;2023-02-28T09:57:08;0.30;99.90
15288;DHT22;7745;48.708;9.026;2023-02-28T10:00:05;0.10;99.90
15288;DHT22;7745;48.708;9.026;2023-02-28T10:03:27;0.20;99.90
15288;DHT22;7745;48.708;9.026;2023-02-28T10:06:08;0.30;99.90
15288;DHT22;7745;48.708;9.026;2023-02-28T10:08:52;0.40;99.90
15288;DHT22;7745;48.708;9.026;2023-02-28T10:11:32;0.80;99.90
15288;DHT22;7745;48.708;9.026;2023-02-28T10:21:21;0.60;99.90
15288;DHT22;7745;48.708;9.026;2023-02-28T10:24:03;0.60;99.90
15288;DHT22;7745;48.708;9.026;2023-02-28T10:26:32;0.60;99.90
15288;DHT22;7745;48.708;9.026;2023-02-28T10:29:04;0.70;99.90
15288;DHT22;7745;48.708;9.026;2023-02-28T10:31:34;0.80;99.90
15288;DHT22;7745;48.708;9.026;2023-02-28T10:34:01;0.80;99.90
15288;DHT22;7745;48.708;9.026;2023-02-28T10:36:31;1.00;99.90
15288;DHT22;7745;48.708;9.026;2023-02-28T10:38:58;1.00;99.90
15288;DHT22;7745;48.708;9.026;2023-02-28T10:41:28;1.00;99.90
15288;DHT22;7745;48.708;9.026;2023-02-28T10:44:14;1.40;99.90
15288;DHT22;7745;48.708;9.026;2023-02-28T10:46:44;1.10;99.90
15288;DHT22;7745;48.708;9.026;2023-02-28T10:49:17;1.10;99.90
15288;DHT22;7745;48.708;9.026;2023-02-28T10:51:50;1.20;99.90
15288;DHT22;7745;48.708;9.026;2023-02-28T10:54:44;1.90;99.90
15288;DHT22;7745;48.708;9.026;2023-02-28T10:57:22;1.40;99.90
15288;DHT22;7745;48.708;9.026;2023-02-28T11:00:23;2.20;99.90
15288;DHT22;7745;48.708;9.026;2023-02-28T11:02:58;1.60;99.90
15288;DHT22;7745;48.708;9.026;2023-02-28T11:05:36;1.80;99.90
15288;DHT22;7745;48.708;9.026;2023-02-28T11:08:14;2.30;99.90
15288;DHT22;7745;48.708;9.026;2023-02-28T11:10:46;2.00;99.90
15288;DHT22;7745;48.708;9.026;2023-02-28T11:13:17;2.00;99.90
15288;DHT22;7745;48.708;9.026;2023-02-28T11:15:51;2.10;99.90
15288;DHT22;7745;48.708;9.026;2023-02-28T11:18:23;2.10;99.90
15288;DHT22;7745;48.708;9.026;2023-02-28T11:20:53;2.00;99.90
15288;DHT22;7745;48.708;9.026;2023-02-28T11:23:24;2.20;99.90
15288;DHT22;7745;48.708;9.026;2023-02-28T11:25:55;2.40;99.90
15288;DHT22;7745;48.708;9.026;2023-02-28T11:28:26;2.50;99.90
15288;DHT22;7745;48.708;9.026;2023-02-28T11:31:03;2.60;99.90
15288;DHT22;7745;48.708;9.026;2023-02-28T11:33:37;2.30;99.90
15288;DHT22;7745;48.708;9.026;2023-02-28T11:36:11;2.60;99.90
15288;DHT22;7745;48.708;9.026;2023-02-28T11:38:40;2.90;99.90
15288;DHT22;7745;48.708;9.026;2023-02-28T11:41:37;2.30;99.90
15288;DHT22;7745;48.708;9.026;2023-02-28T11:44:20;2.20;99.90
15288;DHT22;7745;48.708;9.026;2023-02-28T11:46:50;2.20;99.90
15288;DHT22;7745;48.708;9.026;2023-02-28T11:49:30;2.20;99.90
15288;DHT22;7745;48.708;9.026;2023-02-28T11:52:10;2.20;99.90
15288;DHT22;7745;48.708;9.026;2023-02-28T11:55:07;2.20;99.90
15288;DHT22;7745;48.708;9.026;2023-02-28T11:57:53;2.20;99.90
15288;DHT22;7745;48.708;9.026;2023-02-28T12:00:42;2.10;99.90
15288;DHT22;7745;48.708;9.026;2023-02-28T12:03:21;2.10;99.90
15288;DHT22;7745;48.708;9.026;2023-02-28T12:06:01;2.00;99.90
15288;DHT22;7745;48.708;9.026;2023-02-28T12:08:46;2.10;99.90
15288;DHT22;7745;48.708;9.026;2023-02-28T12:11:25;2.10;99.90
15288;DHT22;7745;48.708;9.026;2023-02-28T12:16:53;2.00;99.90
15288;DHT22;7745;48.708;9.026;2023-02-28T12:19:24;2.40;99.90
15288;DHT22;7745;48.708;9.026;2023-02-28T12:28:11;2.30;99.90
15288;DHT22;7745;48.708;9.026;2023-02-28T12:30:58;2.50;99.90
15288;DHT22;7745;48.708;9.026;2023-02-28T12:33:52;2.80;99.90
15288;DHT22;7745;48.708;9.026;2023-02-28T12:57:39;2.80;99.90
15288;DHT22;7745;48.708;9.026;2023-02-28T13:00:12;2.80;99.90
15288;DHT22;7745;48.708;9.026;2023-02-28T13:02:56;2.80;99.90
15288;DHT22;7745;48.708;9.026;2023-02-28T13:05:45;2.90;99.90
15288;DHT22;7745;48.708;9.026;2023-02-28T13:11:29;3.20;99.90
15288;DHT22;7745;48.708;9.026;2023-02-28T13:14:03;3.20;99.90
15288;DHT22;7745;48.708;9.026;2023-02-28T13:16:51;3.40;99.90
15288;DHT22;7745;48.708;9.026;2023-02-28T13:19:20;3.40;99.90
15288;DHT22;7745;48.708;9.026;2023-02-28T13:21:50;3.40;99.90
15288;DHT22;7745;48.708;9.026;2023-02-28T13:24:40;3.50;99.90
15288;DHT22;7745;48.708;9.026;2023-02-28T13:27:32;3.30;99.90
15288;DHT22;7745;48.708;9.026;2023-02-28T13:30:02;3.20;99.90
15288;DHT22;7745;48.708;9.026;2023-02-28T13:33:20;3.20;99.90
15288;DHT22;7745;48.708;9.026;2023-02-28T13:36:11;3.10;99.90
15288;DHT22;7745;48.708;9.026;2023-02-28T13:38:58;3.40;99.90
15288;DHT22;7745;48.708;9.026;2023-02-28T13:41:47;3.50;99.90
15288;DHT22;7745;48.708;9.026;2023-02-28T13:57:42;3.70;99.90
15288;DHT22;7745;48.708;9.026;2023-02-28T14:07:17;3.70;99.90
15288;DHT22;7745;48.708;9.026;2023-02-28T14:13:42;3.70;99.90
15288;DHT22;7745;48.708;9.026;2023-02-28T14:16:40;4.00;99.90
15288;DHT22;7745;48.708;9.026;2023-02-28T14:25:44;3.60;99.90
15288;DHT22;7745;48.708;9.026;2023-02-28T14:31:57;3.80;99.90
15288;DHT22;7745;48.708;9.026;2023-02-28T14:35:20;3.70;99.90
15288;DHT22;7745;48.708;9.026;2023-02-28T14:38:23;3.70;99.90
15288;DHT22;7745;48.708;9.026;2023-02-28T14:41:14;3.80;99.90
15288;DHT22;7745;48.708;9.026;2023-02-28T14:43:53;3.90;99.90
15288;DHT22;7745;48.708;9.026;2023-02-28T14:46:36;3.70;99.90
15288;DHT22;7745;48.708;9.026;2023-02-28T14:55:25;4.10;99.90
15288;DHT22;7745;48.708;9.026;2023-02-28T14:58:29;4.10;99.90
15288;DHT22;7745;48.708;9.026;2023-02-28T15:04:01;4.20;99.90
15288;DHT22;7745;48.708;9.026;2023-02-28T15:06:45;4.50;99.90
15288;DHT22;7745;48.708;9.026;2023-02-28T15:09:30;3.90;99.90
15288;DHT22;7745;48.708;9.026;2023-02-28T15:12:03;3.90;99.90
15288;DHT22;7745;48.708;9.026;2023-02-28T15:15:13;4.00;99.90
15288;DHT22;7745;48.708;9.026;2023-02-28T15:17:56;3.80;99.90
15288;DHT22;7745;48.708;9.026;2023-02-28T15:20:39;3.80;99.90
15288;DHT22;7745;48.708;9.026;2023-02-28T15:23:51;4.60;99.90
15288;DHT22;7745;48.708;9.026;2023-02-28T15:26:38;4.10;99.90
15288;DHT22;7745;48.708;9.026;2023-02-28T15:29:19;4.30;99.90
15288;DHT22;7745;48.708;9.026;2023-02-28T15:32:32;4.00;99.90
15288;DHT22;7745;48.708;9.026;2023-02-28T15:35:25;4.00;99.90
15288;DHT22;7745;48.708;9.026;2023-02-28T15:41:35;4.00;99.90
15288;DHT22;7745;48.708;9.026;2023-02-28T15:44:24;3.90;99.90
15288;DHT22;7745;48.708;9.026;2023-02-28T15:47:44;4.00;99.90
15288;DHT22;7745;48.708;9.026;2023-02-28T15:50:43;4.10;99.90
15288;DHT22;7745;48.708;9.026;2023-02-28T15:53:17;3.90;99.90
15288;DHT22;7745;48.708;9.026;2023-02-28T15:55:55;4.40;99.90
15288;DHT22;7745;48.708;9.026;2023-02-28T15:58:28;3.90;99.90
15288;DHT22;7745;48.708;9.026;2023-02-28T16:01:15;3.90;99.90
15288;DHT22;7745;48.708;9.026;2023-02-28T16:03:51;3.60;99.90
15288;DHT22;7745;48.708;9.026;2023-02-28T16:06:37;4.10;99.90
15288;DHT22;7745;48.708;9.026;2023-02-28T16:09:16;3.80;99.90
15288;DHT22;7745;48.708;9.026;2023-02-28T16:11:52;4.10;99.90
15288;DHT22;7745;48.708;9.026;2023-02-28T16:14:24;3.80;99.90
15288;DHT22;7745;48.708;9.026;2023-02-28T16:16:57;3.80;99.90
15288;DHT22;7745;48.708;9.026;2023-02-28T16:19:34;4.10;99.90
15288;DHT22;7745;48.708;9.026;2023-02-28T16:22:07;3.70;99.90
15288;DHT22;7745;48.708;9.026;2023-02-28T16:24:37;3.70;99.90
15288;DHT22;7745;48.708;9.026;2023-02-28T16:27:16;3.60;99.90
15288;DHT22;7745;48.708;9.026;2023-02-28T16:29:48;4.00;99.90
15288;DHT22;7745;48.708;9.026;2023-02-28T16:32:27;3.60;99.90
15288;DHT22;7745;48.708;9.026;2023-02-28T16:35:05;3.90;99.90
15288;DHT22;7745;48.708;9.026;2023-02-28T16:37:39;3.70;99.90
15288;DHT22;7745;48.708;9.026;2023-02-28T16:43:55;3.40;99.90
15288;DHT22;7745;48.708;9.026;2023-02-28T16:46:33;3.50;99.90
15288;DHT22;7745;48.708;9.026;2023-02-28T16:53:38;3.10;99.90
15288;DHT22;7745;48.708;9.026;2023-02-28T16:56:22;3.00;99.90
15288;DHT22;7745;48.708;9.026;2023-02-28T16:59:21;3.10;99.90
15288;DHT22;7745;48.708;9.026;2023-02-28T17:12:32;2.60;99.90
15288;DHT22;7745;48.708;9.026;2023-02-28T17:15:21;2.70;99.90
15288;DHT22;7745;48.708;9.026;2023-02-28T17:18:26;2.40;99.90
15288;DHT22;7745;48.708;9.026;2023-02-28T17:21:14;2.80;99.90
15288;DHT22;7745;48.708;9.026;2023-02-28T17:27:13;2.30;99.90
15288;DHT22;7745;48.708;9.026;2023-02-28T17:36:32;1.90;99.90
15288;DHT22;7745;48.708;9.026;2023-02-28T17:39:01;2.10;99.90
15288;DHT22;7745;48.708;9.026;2023-02-28T17:41:53;2.00;99.90
15288;DHT22;7745;48.708;9.026;2023-02-28T17:47:38;1.90;99.90
15288;DHT22;7745;48.708;9.026;2023-02-28T17:50:06;1.80;99.90
15288;DHT22;7745;48.708;9.026;2023-02-28T17:52:40;1.80;99.90
15288;DHT22;7745;48.708;9.026;2023-02-28T17:55:11;1.80;99.90
15288;DHT22;7745;48.708;9.026;2023-02-28T17:57:50;1.70;99.90
15288;DHT22;7745;48.708;9.026;2023-02-28T18:00:17;1.70;99.90
15288;DHT22;7745;48.708;9.026;2023-02-28T18:02:54;1.60;99.90
15288;DHT22;7745;48.708;9.026;2023-02-28T18:08:28;1.60;99.90
15288;DHT22;7745;48.708;9.026;2023-02-28T18:11:11;1.50;99.90
15288;DHT22;7745;48.708;9.026;2023-02-28T18:13:43;1.80;99.90
15288;DHT22;7745;48.708;9.026;2023-02-28T18:16:14;1.50;99.90
15288;DHT22;7745;48.708;9.026;2023-02-28T18:18:54;1.50;99.90
15288;DHT22;7745;48.708;9.026;2023-02-28T19:41:05;0.20;99.90
15288;DHT22;7745;48.708;9.026;2023-02-28T19:48:01;0.30;99.90
15288;DHT22;7745;48.708;9.026;2023-02-28T19:50:40;0.50;99.90
15288;DHT22;7745;48.708;9.026;2023-02-28T19:53:25;0.60;99.90
15288;DHT22;7745;48.708;9.026;2023-02-28T20:20:26;-0.20;99.90
15288;DHT22;7745;48.708;9.026;2023-02-28T20:23:24;0.00;99.90
15288;DHT22;7745;48.708;9.026;2023-02-28T20:26:43;0.20;99.90
15288;DHT22;7745;48.708;9.026;2023-02-28T20:29:22;-0.10;99.90
15288;DHT22;7745;48.708;9.026;2023-02-28T20:32:07;0.40;99.90
15288;DHT22;7745;48.708;9.026;2023-02-28T20:51:58;0.00;99.90
15288;DHT22;7745;48.708;9.026;2023-02-28T20:54:33;0.10;99.90
15288;DHT22;7745;48.708;9.026;2023-02-28T20:57:17;-0.10;99.90
15288;DHT22;7745;48.708;9.026;2023-02-28T20:59:56;-0.20;99.90
15288;DHT22;7745;48.708;9.026;2023-02-28T21:02:32;-0.30;99.90
15288;DHT22;7745;48.708;9.026;2023-02-28T21:05:11;-0.30;99.90
15288;DHT22;7745;48.708;9.026;2023-02-28T21:08:31;-0.70;99.90
15288;DHT22;7745;48.708;9.026;2023-02-28T21:11:06;-0.10;99.90
15288;DHT22;7745;48.708;9.026;2023-02-28T21:13:40;0.20;99.90
15288;DHT22;7745;48.708;9.026;2023-02-28T21:16:15;-0.20;99.90
15288;DHT22;7745;48.708;9.026;2023-02-28T21:18:52;-0.10;99.90
15288;DHT22;7745;48.708;9.026;2023-02-28T21:21:34;-0.20;99.90
15288;DHT22;7745;48.708;9.026;2023-02-28T21:24:31;-0.20;99.90
15288;DHT22;7745;48.708;9.026;2023-02-28T21:27:11;-0.40;99.90
15288;DHT22;7745;48.708;9.026;2023-02-28T21:29:43;0.20;99.90
15288;DHT22;7745;48.708;9.026;2023-02-28T21:32:15;-0.10;99.90
15288;DHT22;7745;48.708;9.026;2023-02-28T21:34:47;0.00;99.90
15288;DHT22;7745;48.708;9.026;2023-02-28T21:37:40;-0.10;99.90
15288;DHT22;7745;48.708;9.026;2023-02-28T21:40:14;0.30;99.90
15288;DHT22;7745;48.708;9.026;2023-02-28T21:42:45;-0.10;99.90
15288;DHT22;7745;48.708;9.026;2023-02-28T21:45:14;0.00;99.90
15288;DHT22;7745;48.708;9.026;2023-02-28T21:47:50;0.20;99.90
15288;DHT22;7745;48.708;9.026;2023-02-28T21:50:21;-0.20;99.90
15288;DHT22;7745;48.708;9.026;2023-02-28T21:55:39;0.40;99.90
15288;DHT22;7745;48.708;9.026;2023-02-28T21:58:18;-0.40;99.90
15288;DHT22;7745;48.708;9.026;2023-02-28T22:00:54;-0.20;99.90
15288;DHT22;7745;48.708;9.026;2023-02-28T22:03:44;-0.40;99.90
15288;DHT22;7745;48.708;9.026;2023-02-28T22:06:17;0.10;99.90
15288;DHT22;7745;48.708;9.026;2023-02-28T22:08:52;-0.20;99.90
15288;DHT22;7745;48.708;9.026;2023-02-28T22:11:34;-0.60;99.90
15288;DHT22;7745;48.708;9.026;2023-02-28T22:14:07;-0.50;99.90
15288;DHT22;7745;48.708;9.026;2023-02-28T22:16:40;-0.70;99.90
15288;DHT22;7745;48.708;9.026;2023-02-28T22:19:17;-0.40;99.90
15288;DHT22;7745;48.708;9.026;2023-02-28T22:21:52;-0.70;99.90
15288;DHT22;7745;48.708;9.026;2023-02-28T22:24:24;-0.80;99.90
15288;DHT22;7745;48.708;9.026;2023-02-28T22:27:03;-0.80;99.90
15288;DHT22;7745;48.708;9.026;2023-02-28T22:29:39;-0.60;99.90
15288;DHT22;7745;48.708;9.026;2023-02-28T22:32:11;-1.40;99.90
15288;DHT22;7745;48.708;9.026;2023-02-28T22:34:42;-0.90;99.90
15288;DHT22;7745;48.708;9.026;2023-02-28T22:37:19;-0.90;99.90
15288;DHT22;7745;48.708;9.026;2023-02-28T22:39:48;-1.30;99.90
15288;DHT22;7745;48.708;9.026;2023-02-28T22:42:19;-0.90;99.90
15288;DHT22;7745;48.708;9.026;2023-02-28T22:44:52;-1.10;99.90
15288;DHT22;7745;48.708;9.026;2023-02-28T22:47:23;-0.50;99.90
15288;DHT22;7745;48.708;9.026;2023-02-28T22:49:54;-1.10;99.90
15288;DHT22;7745;48.708;9.026;2023-02-28T22:52:21;-1.20;99.90
15288;DHT22;7745;48.708;9.026;2023-02-28T22:54:55;-0.80;99.90
15288;DHT22;7745;48.708;9.026;2023-02-28T22:57:24;-0.60;99.90
15288;DHT22;7745;48.708;9.026;2023-02-28T22:59:56;-0.50;99.90
15288;DHT22;7745;48.708;9.026;2023-02-28T23:02:31;-0.90;99.90
15288;DHT22;7745;48.708;9.026;2023-02-28T23:05:10;-1.00;99.90
15288;DHT22;7745;48.708;9.026;2023-02-28T23:07:46;-0.90;99.90
15288;DHT22;7745;48.708;9.026;2023-02-28T23:10:31;-0.70;99.90
15288;DHT22;7745;48.708;9.026;2023-02-28T23:13:14;-0.60;99.90
15288;DHT22;7745;48.708;9.026;2023-02-28T23:15:49;-0.60;99.90
15288;DHT22;7745;48.708;9.026;2023-02-28T23:18:21;-0.10;99.90
15288;DHT22;7745;48.708;9.026;2023-02-28T23:20:53;-0.50;99.90
15288;DHT22;7745;48.708;9.026;2023-02-28T23:23:28;-0.60;99.90
15288;DHT22;7745;48.708;9.026;2023-02-28T23:26:11;-0.20;99.90
15288;DHT22;7745;48.708;9.026;2023-02-28T23:31:51;-0.60;99.90
15288;DHT22;7745;48.708;9.026;2023-02-28T23:34:32;-0.30;99.90
15288;DHT22;7745;48.708;9.026;2023-02-28T23:37:07;-0.70;99.90
15288;DHT22;7745;48.708;9.026;2023-02-28T23:39:44;-0.70;99.90
15288;DHT22;7745;48.708;9.026;2023-02-28T23:42:24;-0.70;99.90
15288;DHT22;7745;48.708;9.026;2023-02-28T23:45:23;-0.70;99.90
15288;DHT22;7745;48.708;9.026;2023-02-28T23:48:08;-1.20;99.90
15288;DHT22;7745;48.708;9.026;2023-02-28T23:51:00;-0.90;99.90
15288;DHT22;7745;48.708;9.026;2023-02-28T23:53:48;-1.00;99.90
15288;DHT22;7745;48.708;9.026;2023-02-28T23:56:38;-1.20;99.90
15288;DHT22;7745;48.708;9.026;2023-02-28T23:59:45;-0.90;99.90
